createdAt,value
2022-08-04T00:00:12.558Z,549.00
2022-08-04T00:00:42.620Z,551.00
2022-08-04T00:01:12.742Z,552.00
2022-08-04T00:01:42.719Z,552.00
2022-08-04T00:02:12.731Z,551.00
2022-08-04T00:02:42.764Z,550.00
2022-08-04T00:03:12.806Z,550.00
2022-08-04T00:03:42.844Z,550.00
2022-08-04T00:04:12.875Z,551.00
2022-08-04T00:04:42.907Z,551.00
2022-08-04T00:05:12.941Z,552.00
2022-08-04T00:05:42.971Z,551.00
2022-08-04T00:06:13.000Z,551.00
2022-08-04T00:06:43.017Z,550.00
2022-08-04T00:07:13.047Z,550.00
2022-08-04T00:07:44.401Z,548.00
2022-08-04T00:08:13.090Z,549.00
2022-08-04T00:08:43.123Z,548.00
2022-08-04T00:09:13.152Z,549.00
2022-08-04T00:09:43.198Z,549.00
2022-08-04T00:10:13.220Z,549.00
2022-08-04T00:10:43.252Z,551.00
2022-08-04T00:11:15.643Z,551.00
2022-08-04T00:11:43.281Z,550.00
2022-08-04T00:12:13.313Z,549.00
2022-08-04T00:12:43.359Z,546.00
2022-08-04T00:13:13.379Z,547.00
2022-08-04T00:13:58.043Z,548.00
2022-08-04T00:14:13.457Z,550.00
2022-08-04T00:14:43.487Z,550.00
2022-08-04T00:15:14.870Z,550.00
2022-08-04T00:15:43.568Z,551.00
2022-08-04T00:16:13.598Z,550.00
2022-08-04T00:16:43.633Z,550.00
2022-08-04T00:17:13.661Z,550.00
2022-08-04T00:17:43.691Z,549.00
2022-08-04T00:18:13.693Z,551.00
2022-08-04T00:18:43.724Z,552.00
2022-08-04T00:19:13.754Z,552.00
2022-08-04T00:19:43.786Z,552.00
2022-08-04T00:20:13.819Z,551.00
2022-08-04T00:20:43.848Z,551.00
2022-08-04T00:21:14.746Z,550.00
2022-08-04T00:21:43.922Z,550.00
2022-08-04T00:22:13.955Z,550.00
2022-08-04T00:22:43.985Z,550.00
2022-08-04T00:23:14.014Z,551.00
2022-08-04T00:24:10.702Z,551.00
2022-08-04T00:24:14.096Z,550.00
2022-08-04T00:24:44.129Z,553.00
2022-08-04T00:25:14.156Z,552.00
2022-08-04T00:25:44.202Z,551.00
2022-08-04T00:26:14.237Z,551.00
2022-08-04T00:26:44.259Z,553.00
2022-08-04T00:27:14.293Z,555.00
2022-08-04T00:27:44.324Z,556.00
2022-08-04T00:28:14.352Z,555.00
2022-08-04T00:28:44.386Z,555.00
2022-08-04T00:29:14.420Z,555.00
2022-08-04T00:29:44.447Z,554.00
2022-08-04T00:30:14.478Z,555.00
2022-08-04T00:30:44.532Z,554.00
2022-08-04T00:31:14.563Z,554.00
2022-08-04T00:31:56.001Z,554.00
2022-08-04T00:32:14.651Z,555.00
2022-08-04T00:32:44.826Z,555.00
2022-08-04T00:33:14.781Z,555.00
2022-08-04T00:33:44.814Z,554.00
2022-08-04T00:34:14.845Z,553.00
2022-08-04T00:34:44.878Z,554.00
2022-08-04T00:35:14.905Z,554.00
2022-08-04T00:35:45.040Z,554.00
2022-08-04T00:36:15.032Z,556.00
2022-08-04T00:36:45.151Z,555.00
2022-08-04T00:37:15.269Z,556.00
2022-08-04T00:37:45.394Z,556.00
2022-08-04T00:38:15.384Z,554.00
2022-08-04T00:38:45.373Z,551.00
2022-08-04T00:39:15.520Z,549.00
2022-08-04T00:39:45.516Z,550.00
2022-08-04T00:40:15.507Z,550.00
2022-08-04T00:40:45.648Z,552.00
2022-08-04T00:41:15.638Z,552.00
2022-08-04T00:41:56.618Z,554.00
2022-08-04T00:42:15.652Z,555.00
2022-08-04T00:42:58.228Z,554.00
2022-08-04T00:43:15.663Z,554.00
2022-08-04T00:43:45.659Z,553.00
2022-08-04T00:44:15.773Z,552.00
2022-08-04T00:44:45.792Z,554.00
2022-08-04T00:45:15.799Z,553.00
2022-08-04T00:46:15.483Z,555.00
2022-08-04T00:46:17.954Z,555.00
2022-08-04T00:46:45.913Z,556.00
2022-08-04T00:47:15.944Z,557.00
2022-08-04T00:47:45.974Z,557.00
2022-08-04T00:48:16.006Z,557.00
2022-08-04T00:48:46.038Z,559.00
2022-08-04T00:49:16.069Z,560.00
2022-08-04T00:49:46.104Z,560.00
2022-08-04T00:50:16.139Z,560.00
2022-08-04T00:50:46.192Z,559.00
2022-08-04T00:51:16.219Z,560.00
2022-08-04T00:51:46.264Z,559.00
2022-08-04T00:52:30.829Z,560.00
2022-08-04T00:52:46.346Z,560.00
2022-08-04T00:53:16.375Z,559.00
2022-08-04T00:53:49.941Z,559.00
2022-08-04T00:54:16.410Z,558.00
2022-08-04T00:54:46.444Z,558.00
2022-08-04T00:55:16.474Z,558.00
2022-08-04T00:55:46.530Z,559.00
2022-08-04T00:56:16.560Z,557.00
2022-08-04T00:56:46.594Z,555.00
2022-08-04T00:57:34.154Z,556.00
2022-08-04T00:57:46.675Z,554.00
2022-08-04T00:58:16.710Z,554.00
2022-08-04T00:58:46.744Z,555.00
2022-08-04T00:59:16.776Z,553.00
2022-08-04T00:59:46.812Z,551.00
2022-08-04T01:00:16.849Z,551.00
2022-08-04T01:00:46.893Z,550.00
2022-08-04T01:01:16.981Z,551.00
2022-08-04T01:01:47.065Z,550.00
2022-08-04T01:02:17.094Z,550.00
2022-08-04T01:02:47.124Z,550.00
2022-08-04T01:03:17.159Z,552.00
2022-08-04T01:03:47.191Z,552.00
2022-08-04T01:04:22.333Z,552.00
2022-08-04T01:04:47.283Z,553.00
2022-08-04T01:05:17.315Z,553.00
2022-08-04T01:05:47.348Z,552.00
2022-08-04T01:06:17.383Z,552.00
2022-08-04T01:06:56.028Z,553.00
2022-08-04T01:07:17.468Z,553.00
2022-08-04T01:07:47.505Z,552.00
2022-08-04T01:08:17.542Z,552.00
2022-08-04T01:08:47.575Z,549.00
2022-08-04T01:09:21.385Z,550.00
2022-08-04T01:09:47.690Z,548.00
2022-08-04T01:10:17.868Z,549.00
2022-08-04T01:10:47.812Z,550.00
2022-08-04T01:11:17.844Z,551.00
2022-08-04T01:11:56.805Z,551.00
2022-08-04T01:12:17.925Z,552.00
2022-08-04T01:12:47.962Z,553.00
2022-08-04T01:13:17.994Z,552.00
2022-08-04T01:13:48.030Z,551.00
2022-08-04T01:14:18.074Z,550.00
2022-08-04T01:14:48.111Z,551.00
2022-08-04T01:15:18.142Z,551.00
2022-08-04T01:15:59.546Z,552.00
2022-08-04T01:16:18.228Z,553.00
2022-08-04T01:16:48.258Z,553.00
2022-08-04T01:17:18.286Z,552.00
2022-08-04T01:17:48.318Z,552.00
2022-08-04T01:18:18.348Z,552.00
2022-08-04T01:18:48.388Z,553.00
2022-08-04T01:19:18.438Z,554.00
2022-08-04T01:19:48.467Z,553.00
2022-08-04T01:20:18.499Z,554.00
2022-08-04T01:20:48.531Z,554.00
2022-08-04T01:21:18.565Z,554.00
2022-08-04T01:21:48.605Z,554.00
2022-08-04T01:22:18.630Z,555.00
2022-08-04T01:22:48.664Z,554.00
2022-08-04T01:23:18.698Z,556.00
2022-08-04T01:23:48.730Z,556.00
2022-08-04T01:24:18.758Z,557.00
2022-08-04T01:24:48.809Z,558.00
2022-08-04T01:25:18.856Z,559.00
2022-08-04T01:25:48.878Z,561.00
2022-08-04T01:26:43.895Z,562.00
2022-08-04T01:26:57.276Z,560.00
2022-08-04T01:27:19.190Z,559.00
2022-08-04T01:27:49.008Z,559.00
2022-08-04T01:28:19.037Z,558.00
2022-08-04T01:28:49.625Z,559.00
2022-08-04T01:29:19.151Z,559.00
2022-08-04T01:29:49.151Z,557.00
2022-08-04T01:30:19.185Z,555.00
2022-08-04T01:30:49.216Z,555.00
2022-08-04T01:31:19.257Z,555.00
2022-08-04T01:31:49.290Z,555.00
2022-08-04T01:32:19.318Z,554.00
2022-08-04T01:32:49.385Z,555.00
2022-08-04T01:33:19.416Z,556.00
2022-08-04T01:33:58.599Z,556.00
2022-08-04T01:34:19.494Z,554.00
2022-08-04T01:34:49.531Z,553.00
2022-08-04T01:35:22.031Z,553.00
2022-08-04T01:35:49.554Z,554.00
2022-08-04T01:36:19.608Z,554.00
2022-08-04T01:36:50.083Z,555.00
2022-08-04T01:37:19.848Z,556.00
2022-08-04T01:37:49.626Z,555.00
2022-08-04T01:38:21.772Z,556.00
2022-08-04T01:38:49.988Z,558.00
2022-08-04T01:39:20.049Z,560.00
2022-08-04T01:39:49.959Z,559.00
2022-08-04T01:40:19.948Z,560.00
2022-08-04T01:40:49.954Z,558.00
2022-08-04T01:41:19.949Z,558.00
2022-08-04T01:41:57.942Z,557.00
2022-08-04T01:42:31.339Z,557.00
2022-08-04T01:42:50.001Z,557.00
2022-08-04T01:43:20.118Z,558.00
2022-08-04T01:43:50.239Z,559.00
2022-08-04T01:44:20.242Z,559.00
2022-08-04T01:44:50.362Z,560.00
2022-08-04T01:45:20.374Z,559.00
2022-08-04T01:45:50.409Z,558.00
2022-08-04T01:46:20.439Z,555.00
2022-08-04T01:46:50.467Z,555.00
2022-08-04T01:47:20.743Z,554.00
2022-08-04T01:47:50.597Z,554.00
2022-08-04T01:48:20.625Z,553.00
2022-08-04T01:48:50.728Z,553.00
2022-08-04T01:49:20.760Z,552.00
2022-08-04T01:49:50.796Z,553.00
2022-08-04T01:50:20.825Z,553.00
2022-08-04T01:50:52.829Z,552.00
2022-08-04T01:51:20.927Z,551.00
2022-08-04T01:51:50.961Z,550.00
2022-08-04T01:52:20.995Z,550.00
2022-08-04T01:52:51.464Z,551.00
2022-08-04T01:53:21.110Z,552.00
2022-08-04T01:53:51.141Z,554.00
2022-08-04T01:54:21.174Z,554.00
2022-08-04T01:54:51.210Z,556.00
2022-08-04T01:55:21.236Z,557.00
2022-08-04T01:55:54.116Z,556.00
2022-08-04T01:56:21.355Z,558.00
2022-08-04T01:56:51.388Z,558.00
2022-08-04T01:57:38.224Z,560.00
2022-08-04T01:57:51.468Z,562.00
2022-08-04T01:58:21.500Z,561.00
2022-08-04T01:58:51.530Z,560.00
2022-08-04T01:59:21.562Z,559.00
2022-08-04T01:59:51.595Z,558.00
2022-08-04T02:00:21.693Z,557.00
2022-08-04T02:00:56.235Z,556.00
2022-08-04T02:01:21.912Z,556.00
2022-08-04T02:01:51.927Z,556.00
2022-08-04T02:02:22.025Z,556.00
2022-08-04T02:02:51.915Z,558.00
2022-08-04T02:03:21.952Z,559.00
2022-08-04T02:04:18.516Z,560.00
2022-08-04T02:04:23.523Z,561.00
2022-08-04T02:04:52.092Z,559.00
2022-08-04T02:05:22.120Z,559.00
2022-08-04T02:06:02.409Z,560.00
2022-08-04T02:06:22.211Z,561.00
2022-08-04T02:06:52.243Z,559.00
2022-08-04T02:07:22.547Z,559.00
2022-08-04T02:07:52.359Z,558.00
2022-08-04T02:08:22.391Z,559.00
2022-08-04T02:08:52.425Z,560.00
2022-08-04T02:09:22.461Z,560.00
2022-08-04T02:09:54.341Z,560.00
2022-08-04T02:10:22.597Z,560.00
2022-08-04T02:10:52.629Z,559.00
2022-08-04T02:11:22.666Z,557.00
2022-08-04T02:11:52.696Z,557.00
2022-08-04T02:12:22.725Z,556.00
2022-08-04T02:12:52.757Z,555.00
2022-08-04T02:13:22.793Z,553.00
2022-08-04T02:13:52.908Z,554.00
2022-08-04T02:14:22.944Z,555.00
2022-08-04T02:14:52.984Z,556.00
2022-08-04T02:15:23.019Z,557.00
2022-08-04T02:15:53.045Z,556.00
2022-08-04T02:16:23.080Z,555.00
2022-08-04T02:16:53.115Z,558.00
2022-08-04T02:17:23.359Z,559.00
2022-08-04T02:17:53.206Z,560.00
2022-08-04T02:18:23.239Z,559.00
2022-08-04T02:18:53.270Z,559.00
2022-08-04T02:19:23.305Z,558.00
2022-08-04T02:19:53.342Z,558.00
2022-08-04T02:20:23.375Z,556.00
2022-08-04T02:20:53.401Z,557.00
2022-08-04T02:21:23.435Z,556.00
2022-08-04T02:21:53.475Z,556.00
2022-08-04T02:22:23.503Z,559.00
2022-08-04T02:22:53.533Z,559.00
2022-08-04T02:23:23.569Z,558.00
2022-08-04T02:23:53.601Z,557.00
2022-08-04T02:24:23.631Z,555.00
2022-08-04T02:24:53.678Z,553.00
2022-08-04T02:25:23.713Z,552.00
2022-08-04T02:25:53.747Z,552.00
2022-08-04T02:26:23.776Z,551.00
2022-08-04T02:26:53.810Z,550.00
2022-08-04T02:27:23.843Z,549.00
2022-08-04T02:27:59.906Z,550.00
2022-08-04T02:28:23.930Z,550.00
2022-08-04T02:28:53.961Z,551.00
2022-08-04T02:29:23.992Z,550.00
2022-08-04T02:29:54.030Z,550.00
2022-08-04T02:30:24.070Z,552.00
2022-08-04T02:30:54.101Z,552.00
2022-08-04T02:31:24.136Z,551.00
2022-08-04T02:31:54.167Z,552.00
2022-08-04T02:32:24.196Z,552.00
2022-08-04T02:32:54.235Z,551.00
2022-08-04T02:33:24.274Z,551.00
2022-08-04T02:33:54.311Z,552.00
2022-08-04T02:34:24.341Z,553.00
2022-08-04T02:34:54.381Z,551.00
2022-08-04T02:35:24.390Z,550.00
2022-08-04T02:35:54.383Z,549.00
2022-08-04T02:36:24.381Z,550.00
2022-08-04T02:36:54.373Z,547.00
2022-08-04T02:37:24.374Z,546.00
2022-08-04T02:37:54.372Z,546.00
2022-08-04T02:38:25.742Z,544.00
2022-08-04T02:38:54.564Z,545.00
2022-08-04T02:39:24.725Z,547.00
2022-08-04T02:39:54.817Z,546.00
2022-08-04T02:40:24.798Z,547.00
2022-08-04T02:40:54.799Z,546.00
2022-08-04T02:41:24.916Z,545.00
2022-08-04T02:41:55.034Z,545.00
2022-08-04T02:42:25.032Z,545.00
2022-08-04T02:42:55.034Z,545.00
2022-08-04T02:43:51.734Z,546.00
2022-08-04T02:43:55.183Z,547.00
2022-08-04T02:44:25.172Z,547.00
2022-08-04T02:44:55.289Z,547.00
2022-08-04T02:45:25.312Z,547.00
2022-08-04T02:45:55.354Z,547.00
2022-08-04T02:46:25.382Z,547.00
2022-08-04T02:46:55.420Z,547.00
2022-08-04T02:48:28.783Z,548.00
2022-08-04T02:48:29.308Z,547.00
2022-08-04T02:48:31.305Z,549.00
2022-08-04T02:48:55.634Z,550.00
2022-08-04T02:49:25.663Z,550.00
2022-08-04T02:49:55.714Z,551.00
2022-08-04T02:50:29.202Z,551.00
2022-08-04T02:50:55.881Z,550.00
2022-08-04T02:51:25.910Z,550.00
2022-08-04T02:51:55.943Z,551.00
2022-08-04T02:52:25.974Z,552.00
2022-08-04T02:52:56.005Z,554.00
2022-08-04T02:53:26.041Z,552.00
2022-08-04T02:53:56.072Z,553.00
2022-08-04T02:54:31.799Z,553.00
2022-08-04T02:54:56.156Z,551.00
2022-08-04T02:55:26.191Z,551.00
2022-08-04T02:55:56.566Z,550.00
2022-08-04T02:56:26.329Z,550.00
2022-08-04T02:56:56.359Z,551.00
2022-08-04T02:57:26.431Z,551.00
2022-08-04T02:57:56.465Z,551.00
2022-08-04T02:58:26.500Z,550.00
2022-08-04T02:58:56.535Z,549.00
2022-08-04T02:59:26.592Z,549.00
2022-08-04T02:59:56.635Z,550.00
2022-08-04T03:00:26.675Z,550.00
2022-08-04T03:00:56.774Z,551.00
2022-08-04T03:01:26.906Z,550.00
2022-08-04T03:01:57.893Z,550.00
2022-08-04T03:02:26.855Z,550.00
2022-08-04T03:02:56.880Z,549.00
2022-08-04T03:03:26.915Z,549.00
2022-08-04T03:03:56.949Z,551.00
2022-08-04T03:04:26.977Z,553.00
2022-08-04T03:04:57.011Z,553.00
2022-08-04T03:05:27.053Z,554.00
2022-08-04T03:06:00.955Z,553.00
2022-08-04T03:06:27.129Z,553.00
2022-08-04T03:06:57.168Z,553.00
2022-08-04T03:07:27.199Z,552.00
2022-08-04T03:07:57.231Z,553.00
2022-08-04T03:08:27.268Z,552.00
2022-08-04T03:08:57.291Z,550.00
2022-08-04T03:09:27.329Z,551.00
2022-08-04T03:09:57.392Z,552.00
2022-08-04T03:10:29.497Z,551.00
2022-08-04T03:10:57.426Z,549.00
2022-08-04T03:11:27.504Z,549.00
2022-08-04T03:11:57.534Z,549.00
2022-08-04T03:12:27.568Z,550.00
2022-08-04T03:12:58.761Z,550.00
2022-08-04T03:13:27.698Z,550.00
2022-08-04T03:13:57.728Z,550.00
2022-08-04T03:14:27.762Z,551.00
2022-08-04T03:14:57.803Z,551.00
2022-08-04T03:15:27.840Z,550.00
2022-08-04T03:15:57.866Z,551.00
2022-08-04T03:16:30.710Z,549.00
2022-08-04T03:16:57.975Z,550.00
2022-08-04T03:17:28.016Z,550.00
2022-08-04T03:17:58.043Z,551.00
2022-08-04T03:18:28.071Z,552.00
2022-08-04T03:18:58.110Z,551.00
2022-08-04T03:19:28.149Z,550.00
2022-08-04T03:19:58.185Z,549.00
2022-08-04T03:20:28.217Z,549.00
2022-08-04T03:20:58.248Z,549.00
2022-08-04T03:21:28.274Z,550.00
2022-08-04T03:21:58.311Z,549.00
2022-08-04T03:22:28.344Z,548.00
2022-08-04T03:23:12.592Z,548.00
2022-08-04T03:23:28.428Z,548.00
2022-08-04T03:23:58.458Z,547.00
2022-08-04T03:24:28.488Z,548.00
2022-08-04T03:24:58.573Z,550.00
2022-08-04T03:25:28.609Z,551.00
2022-08-04T03:25:58.638Z,552.00
2022-08-04T03:26:28.675Z,552.00
2022-08-04T03:26:58.701Z,551.00
2022-08-04T03:27:28.730Z,553.00
2022-08-04T03:27:58.758Z,552.00
2022-08-04T03:28:28.791Z,552.00
2022-08-04T03:28:58.828Z,552.00
2022-08-04T03:29:37.088Z,552.00
2022-08-04T03:29:58.916Z,553.00
2022-08-04T03:30:28.951Z,551.00
2022-08-04T03:30:58.984Z,550.00
2022-08-04T03:31:29.027Z,552.00
2022-08-04T03:31:59.056Z,551.00
2022-08-04T03:32:29.082Z,551.00
2022-08-04T03:32:59.116Z,549.00
2022-08-04T03:33:29.148Z,548.00
2022-08-04T03:33:59.183Z,547.00
2022-08-04T03:34:29.222Z,546.00
2022-08-04T03:34:59.247Z,546.00
2022-08-04T03:35:29.253Z,545.00
2022-08-04T03:35:59.248Z,545.00
2022-08-04T03:36:31.795Z,546.00
2022-08-04T03:36:59.457Z,545.00
2022-08-04T03:37:29.449Z,547.00
2022-08-04T03:37:59.575Z,546.00
2022-08-04T03:38:29.693Z,546.00
2022-08-04T03:38:59.786Z,545.00
2022-08-04T03:39:29.877Z,544.00
2022-08-04T03:39:59.861Z,546.00
2022-08-04T03:40:29.859Z,548.00
2022-08-04T03:40:59.857Z,548.00
2022-08-04T03:41:55.130Z,547.00
2022-08-04T03:42:04.235Z,548.00
2022-08-04T03:42:29.997Z,548.00
2022-08-04T03:43:00.111Z,549.00
2022-08-04T03:43:58.743Z,548.00
2022-08-04T03:44:00.205Z,547.00
2022-08-04T03:44:30.210Z,549.00
2022-08-04T03:45:00.205Z,547.00
2022-08-04T03:45:30.245Z,548.00
2022-08-04T03:46:00.276Z,548.00
2022-08-04T03:46:30.301Z,548.00
2022-08-04T03:47:00.334Z,548.00
2022-08-04T03:47:30.368Z,547.00
2022-08-04T03:48:00.394Z,548.00
2022-08-04T03:48:30.429Z,549.00
2022-08-04T03:49:00.468Z,548.00
2022-08-04T03:49:30.499Z,546.00
2022-08-04T03:50:00.532Z,546.00
2022-08-04T03:50:30.559Z,546.00
2022-08-04T03:51:00.594Z,548.00
2022-08-04T03:51:35.609Z,547.00
2022-08-04T03:52:00.674Z,547.00
2022-08-04T03:52:30.709Z,546.00
2022-08-04T03:53:00.741Z,546.00
2022-08-04T03:53:30.772Z,545.00
2022-08-04T03:54:00.811Z,546.00
2022-08-04T03:54:30.851Z,547.00
2022-08-04T03:55:00.878Z,548.00
2022-08-04T03:55:30.913Z,548.00
2022-08-04T03:56:00.951Z,547.00
2022-08-04T03:56:30.982Z,548.00
2022-08-04T03:57:01.017Z,548.00
2022-08-04T03:57:31.044Z,547.00
2022-08-04T03:58:01.076Z,548.00
2022-08-04T03:58:33.972Z,549.00
2022-08-04T03:59:01.182Z,549.00
2022-08-04T03:59:31.210Z,548.00
2022-08-04T04:00:01.279Z,549.00
2022-08-04T04:00:31.314Z,550.00
2022-08-04T04:01:01.342Z,550.00
2022-08-04T04:02:01.153Z,551.00
2022-08-04T04:02:06.611Z,550.00
2022-08-04T04:02:31.525Z,552.00
2022-08-04T04:03:01.598Z,553.00
2022-08-04T04:03:31.633Z,554.00
2022-08-04T04:04:01.659Z,555.00
2022-08-04T04:04:31.692Z,557.00
2022-08-04T04:05:01.806Z,559.00
2022-08-04T04:05:32.954Z,561.00
2022-08-04T04:06:02.464Z,562.00
2022-08-04T04:06:31.957Z,563.00
2022-08-04T04:07:01.994Z,564.00
2022-08-04T04:07:36.113Z,564.00
2022-08-04T04:08:04.333Z,564.00
2022-08-04T04:08:32.120Z,563.00
2022-08-04T04:09:02.160Z,563.00
2022-08-04T04:09:57.021Z,561.00
2022-08-04T04:10:06.308Z,560.00
2022-08-04T04:10:32.335Z,560.00
2022-08-04T04:11:02.371Z,558.00
2022-08-04T04:11:32.402Z,558.00
2022-08-04T04:12:02.435Z,558.00
2022-08-04T04:12:32.466Z,560.00
2022-08-04T04:13:02.506Z,561.00
2022-08-04T04:13:32.535Z,561.00
2022-08-04T04:14:02.567Z,563.00
2022-08-04T04:14:32.600Z,567.00
2022-08-04T04:15:02.655Z,570.00
2022-08-04T04:15:32.689Z,576.00
2022-08-04T04:16:02.723Z,579.00
2022-08-04T04:16:32.753Z,582.00
2022-08-04T04:17:02.784Z,582.00
2022-08-04T04:17:32.811Z,584.00
2022-08-04T04:18:02.847Z,585.00
2022-08-04T04:18:32.878Z,584.00
2022-08-04T04:19:02.913Z,586.00
2022-08-04T04:19:32.945Z,587.00
2022-08-04T04:20:03.006Z,590.00
2022-08-04T04:20:33.036Z,591.00
2022-08-04T04:21:03.066Z,593.00
2022-08-04T04:21:33.099Z,596.00
2022-08-04T04:22:03.133Z,598.00
2022-08-04T04:22:37.975Z,600.00
2022-08-04T04:23:03.205Z,603.00
2022-08-04T04:23:33.234Z,602.00
2022-08-04T04:24:03.270Z,601.00
2022-08-04T04:24:33.814Z,600.00
2022-08-04T04:25:03.411Z,598.00
2022-08-04T04:25:33.438Z,597.00
2022-08-04T04:26:03.471Z,595.00
2022-08-04T04:26:33.508Z,594.00
2022-08-04T04:27:03.546Z,593.00
2022-08-04T04:27:33.567Z,592.00
2022-08-04T04:28:44.524Z,587.00
2022-08-04T04:28:44.832Z,589.00
2022-08-04T04:29:03.761Z,587.00
2022-08-04T04:29:33.764Z,585.00
2022-08-04T04:30:03.811Z,586.00
2022-08-04T04:30:33.854Z,584.00
2022-08-04T04:31:03.914Z,583.00
2022-08-04T04:31:33.919Z,581.00
2022-08-04T04:32:03.956Z,580.00
2022-08-04T04:32:33.977Z,579.00
2022-08-04T04:33:04.011Z,578.00
2022-08-04T04:33:34.038Z,576.00
2022-08-04T04:34:04.067Z,576.00
2022-08-04T04:34:34.095Z,576.00
2022-08-04T04:35:04.142Z,576.00
2022-08-04T04:35:34.275Z,574.00
2022-08-04T04:36:04.267Z,574.00
2022-08-04T04:36:34.268Z,573.00
2022-08-04T04:37:04.388Z,573.00
2022-08-04T04:37:34.506Z,571.00
2022-08-04T04:38:04.499Z,568.00
2022-08-04T04:38:34.615Z,564.00
2022-08-04T04:39:04.859Z,561.00
2022-08-04T04:39:34.805Z,560.00
2022-08-04T04:40:04.829Z,558.00
2022-08-04T04:40:34.994Z,560.00
2022-08-04T04:41:04.864Z,559.00
2022-08-04T04:41:34.856Z,558.00
2022-08-04T04:42:04.852Z,557.00
2022-08-04T04:42:34.847Z,557.00
2022-08-04T04:43:04.964Z,557.00
2022-08-04T04:43:50.347Z,556.00
2022-08-04T04:44:05.101Z,555.00
2022-08-04T04:44:35.099Z,554.00
2022-08-04T04:45:05.097Z,552.00
2022-08-04T04:45:35.145Z,553.00
2022-08-04T04:46:05.176Z,554.00
2022-08-04T04:46:35.258Z,555.00
2022-08-04T04:47:05.295Z,556.00
2022-08-04T04:48:07.361Z,557.00
2022-08-04T04:48:08.244Z,556.00
2022-08-04T04:48:35.427Z,555.00
2022-08-04T04:49:05.459Z,555.00
2022-08-04T04:49:35.530Z,554.00
2022-08-04T04:50:05.629Z,552.00
2022-08-04T04:50:36.978Z,554.00
2022-08-04T04:51:05.712Z,556.00
2022-08-04T04:51:35.746Z,555.00
2022-08-04T04:52:05.775Z,554.00
2022-08-04T04:52:35.817Z,554.00
2022-08-04T04:53:05.859Z,553.00
2022-08-04T04:53:35.884Z,553.00
2022-08-04T04:54:05.917Z,553.00
2022-08-04T04:54:35.948Z,554.00
2022-08-04T04:55:05.979Z,553.00
2022-08-04T04:55:36.020Z,555.00
2022-08-04T04:56:06.058Z,555.00
2022-08-04T04:56:36.089Z,557.00
2022-08-04T04:57:06.127Z,559.00
2022-08-04T04:57:53.883Z,562.00
2022-08-04T04:58:06.212Z,563.00
2022-08-04T04:58:36.238Z,560.00
2022-08-04T04:59:06.283Z,557.00
2022-08-04T04:59:36.307Z,555.00
2022-08-04T05:00:06.337Z,555.00
2022-08-04T05:00:36.402Z,553.00
2022-08-04T05:01:06.432Z,554.00
2022-08-04T05:01:36.465Z,562.00
2022-08-04T05:02:06.493Z,569.00
2022-08-04T05:02:36.521Z,548.00
2022-08-04T05:03:09.279Z,570.00
2022-08-04T05:03:36.662Z,555.00
2022-08-04T05:04:06.694Z,558.00
2022-08-04T05:04:36.721Z,551.00
2022-08-04T05:05:06.748Z,554.00
2022-08-04T05:05:36.795Z,551.00
2022-08-04T05:06:06.830Z,551.00
2022-08-04T05:06:36.858Z,554.00
2022-08-04T05:07:06.888Z,555.00
2022-08-04T05:07:36.922Z,556.00
2022-08-04T05:08:42.750Z,555.00
2022-08-04T05:08:45.204Z,557.00
2022-08-04T05:09:07.045Z,556.00
2022-08-04T05:09:37.076Z,556.00
2022-08-04T05:10:07.107Z,554.00
2022-08-04T05:10:37.152Z,553.00
2022-08-04T05:11:07.183Z,555.00
2022-08-04T05:11:37.217Z,551.00
2022-08-04T05:14:32.521Z,552.00
2022-08-04T05:14:32.560Z,553.00
2022-08-04T05:14:32.625Z,553.00
2022-08-04T05:14:34.838Z,552.00
2022-08-04T05:14:36.277Z,561.00
2022-08-04T05:14:41.496Z,564.00
2022-08-04T05:15:07.525Z,561.00
2022-08-04T05:15:37.579Z,559.00
2022-08-04T05:16:07.619Z,569.00
2022-08-04T05:16:37.646Z,568.00
2022-08-04T05:17:07.680Z,561.00
2022-08-04T05:17:38.620Z,560.00
2022-08-04T05:18:07.783Z,556.00
2022-08-04T05:18:37.817Z,557.00
2022-08-04T05:19:07.848Z,557.00
2022-08-04T05:19:37.878Z,555.00
2022-08-04T05:20:07.907Z,554.00
2022-08-04T05:20:37.956Z,554.00
2022-08-04T05:21:08.006Z,554.00
2022-08-04T05:21:38.041Z,552.00
2022-08-04T05:22:12.457Z,550.00
2022-08-04T05:22:38.123Z,552.00
2022-08-04T05:23:08.158Z,552.00
2022-08-04T05:23:38.186Z,551.00
2022-08-04T05:24:08.214Z,552.00
2022-08-04T05:24:38.269Z,553.00
2022-08-04T05:25:08.302Z,553.00
2022-08-04T05:25:38.345Z,556.00
2022-08-04T05:26:08.383Z,554.00
2022-08-04T05:26:38.414Z,559.00
2022-08-04T05:27:08.451Z,558.00
2022-08-04T05:27:40.098Z,552.00
2022-08-04T05:28:08.584Z,550.00
2022-08-04T05:28:38.624Z,549.00
2022-08-04T05:29:08.652Z,552.00
2022-08-04T05:29:41.029Z,551.00
2022-08-04T05:30:08.711Z,553.00
2022-08-04T05:30:38.754Z,554.00
2022-08-04T05:31:08.770Z,554.00
2022-08-04T05:31:38.805Z,555.00
2022-08-04T05:32:08.837Z,552.00
2022-08-04T05:32:38.871Z,553.00
2022-08-04T05:33:08.904Z,553.00
2022-08-04T05:33:38.956Z,554.00
2022-08-04T05:34:08.980Z,553.00
2022-08-04T05:34:39.013Z,553.00
2022-08-04T05:35:09.042Z,554.00
2022-08-04T05:36:17.799Z,552.00
2022-08-04T05:36:20.673Z,553.00
2022-08-04T05:36:41.528Z,553.00
2022-08-04T05:37:09.270Z,553.00
2022-08-04T05:37:39.271Z,552.00
2022-08-04T05:38:09.300Z,552.00
2022-08-04T05:38:39.312Z,554.00
2022-08-04T05:39:09.453Z,555.00
2022-08-04T05:39:39.502Z,555.00
2022-08-04T05:40:09.495Z,556.00
2022-08-04T05:40:39.785Z,555.00
2022-08-04T05:41:09.770Z,565.00
2022-08-04T05:41:45.289Z,557.00
2022-08-04T05:42:09.643Z,556.00
2022-08-04T05:42:39.645Z,557.00
2022-08-04T05:43:09.638Z,557.00
2022-08-04T05:43:39.628Z,556.00
2022-08-04T05:44:09.758Z,556.00
2022-08-04T05:44:39.752Z,555.00
2022-08-04T05:45:09.762Z,556.00
2022-08-04T05:45:39.786Z,557.00
2022-08-04T05:46:09.840Z,558.00
2022-08-04T05:46:39.870Z,556.00
2022-08-04T05:47:09.903Z,553.00
2022-08-04T05:47:39.937Z,549.00
2022-08-04T05:48:09.978Z,545.00
2022-08-04T05:48:40.010Z,543.00
2022-08-04T05:49:10.050Z,542.00
2022-08-04T05:49:40.115Z,543.00
2022-08-04T05:50:10.146Z,541.00
2022-08-04T05:50:40.175Z,541.00
2022-08-04T05:51:10.214Z,540.00
2022-08-04T05:51:40.324Z,539.00
2022-08-04T05:52:10.355Z,536.00
2022-08-04T05:52:40.387Z,535.00
2022-08-04T05:53:10.424Z,534.00
2022-08-04T05:53:40.456Z,530.00
2022-08-04T05:54:10.495Z,531.00
2022-08-04T05:54:40.550Z,530.00
2022-08-04T05:55:10.604Z,529.00
2022-08-04T05:55:56.665Z,530.00
2022-08-04T05:56:10.691Z,532.00
2022-08-04T05:56:40.722Z,531.00
2022-08-04T05:57:10.765Z,528.00
2022-08-04T05:57:40.791Z,530.00
2022-08-04T05:58:10.832Z,530.00
2022-08-04T05:58:40.869Z,527.00
2022-08-04T05:59:10.907Z,525.00
2022-08-04T05:59:40.939Z,523.00
2022-08-04T06:00:39.028Z,524.00
2022-08-04T06:00:41.775Z,522.00
2022-08-04T06:01:11.091Z,522.00
2022-08-04T06:01:56.137Z,524.00
2022-08-04T06:02:11.240Z,525.00
2022-08-04T06:02:41.297Z,523.00
2022-08-04T06:03:11.333Z,523.00
2022-08-04T06:03:41.367Z,524.00
2022-08-04T06:04:11.697Z,522.00
2022-08-04T06:04:41.468Z,525.00
2022-08-04T06:05:11.503Z,528.00
2022-08-04T06:05:41.540Z,529.00
2022-08-04T06:06:11.581Z,529.00
2022-08-04T06:06:41.619Z,529.00
2022-08-04T06:07:11.660Z,528.00
2022-08-04T06:08:12.197Z,530.00
2022-08-04T06:08:13.960Z,534.00
2022-08-04T06:08:41.786Z,533.00
2022-08-04T06:09:11.814Z,534.00
2022-08-04T06:09:41.844Z,536.00
2022-08-04T06:10:11.889Z,538.00
2022-08-04T06:10:41.907Z,542.00
2022-08-04T06:11:11.952Z,545.00
2022-08-04T06:12:00.428Z,546.00
2022-08-04T06:12:12.045Z,549.00
2022-08-04T06:12:42.087Z,547.00
2022-08-04T06:13:47.714Z,557.00
2022-08-04T06:13:48.823Z,559.00
2022-08-04T06:14:12.229Z,493.00
2022-08-04T06:14:42.273Z,519.00